General Aviation Weather

Text Reports

Enter one or more of the following location identifiers separated by a space:

Zip Code, Four-Character ICAO or Three-Character IATA airport codes.

METAR - Aviation Routine Weather Report
KAEL - Albert Lea, Minnesota
Updated at 7:12 PM GMT on May 24, 2015 (2:12 PM CDT):
METAR KAEL 241912Z AUTO 12013G20KT 2 1/2SM RA BKN008 OVC012 15/15 A2991 RMK AO2 P0005
TAF - Terminal Area Forecast
KAEL - Albert Lea, Minnesota
Updated at 7:12 PM GMT on May 24, 2015 (2:12 PM CDT):
No TAF is currently available for this location.
Decoded:
No decoded TAF is available.
PIREP - Pilot Weather Report
KAEL - Albert Lea, Minnesota
Updated at 7:12 PM GMT on May 24, 2015 (2:12 PM CDT):
No PIREP is currently available for this location.
AIRMET - Airmens Meteorological Information
KAEL - Albert Lea, Minnesota
Updated at 7:12 PM GMT on May 24, 2015 (2:12 PM CDT):
No AIRMET is currently available for this location.
SIGMET - Significant Meteorological Information
KAEL - Albert Lea, Minnesota
Updated at 7:12 PM GMT on May 24, 2015 (2:12 PM CDT):
No SIGMET is currently available for this location.
NOTAM - Notice to Airmen
KAEL - Albert Lea, Minnesota
Updated at 7:12 PM GMT on May 24, 2015 (2:12 PM CDT):
No NOTAM is currently available for this location.
Forecast Area
KAEL - Albert Lea, Minnesota
Updated at 7:12 PM GMT on May 24, 2015 (2:12 PM CDT):
No NOTAM is currently available for this location.
Aviation Weather Maps